tititudorancea.com
Station Historical Data
Daily Summary for May 17, 2018 Units:  Metric    English   Both
« Previous Day
Next Day »
Daily Weekly Monthly Yearly Custom
  High: Low: Average:
Temperature: -17.8 °C 9.2 °C 10.3 °C
Dew Point: -17.8 °C 5 °C 6.9 °C
Humidity: Humidity % 73 % 79 %
Wind Speed: 0 km/h 0 km/h 6.6 km/h
Wind Gust: 0 km/h - -
Wind:- - WSW
Pressure: 0 hPa 1023.9 hPa -
Precipitation: 0 mm    
Historical Graphs
 
 
Ararat weather Find more about Weather in Ararat, AU


 



 


Tabular Data for May 17, 2018
Time Temperature Dew Point Pressure Wind Wind Speed Wind Gust Humidity Rainfall Rate (Hourly)
-17.8 °C -17.8 °C 0 hPa Calm     Humidity % 0 mm
00:03 9.5 °C 5.1 °C 1030 hPa SSW 6.6 km/h 9.3 km/h 74 % 0 mm
00:08 9.4 °C 5.1 °C 1030 hPa SSW 6.4 km/h 13 km/h 74 % 0 mm
00:13 9.4 °C 5.2 °C 1030 hPa SSW 4 km/h 7.4 km/h 75 % 0 mm
00:18 9.4 °C 5.1 °C 1030 hPa SSW 8.5 km/h 14.8 km/h 74 % 0 mm
00:23 9.5 °C 5.1 °C 1030 hPa SSW 10.9 km/h 14.8 km/h 74 % 0 mm
00:28 9.5 °C 5.1 °C 1030 hPa SSW 5.8 km/h 9.7 km/h 74 % 0 mm
00:33 9.5 °C 5.1 °C 1030 hPa SSW 3.5 km/h 5.6 km/h 74 % 0 mm
00:38 9.4 °C 5.2 °C 1030 hPa SSW 8.7 km/h 13 km/h 75 % 0 mm
00:43 9.6 °C 5.2 °C 1029.7 hPa SW 10 km/h 18.5 km/h 74 % 0 mm
00:48 9.6 °C 5.2 °C 1029.7 hPa SW 7.9 km/h 14.5 km/h 74 % 0 mm
00:53 9.6 °C 5.2 °C 1029.7 hPa SW 6.6 km/h 9.3 km/h 74 % 0 mm
00:58 9.6 °C 5.2 °C 1029.7 hPa SW 6.1 km/h 13 km/h 74 % 0 mm
01:03 9.6 °C 5 °C 1029.7 hPa SSW 13.7 km/h 22.2 km/h 73 % 0 mm
01:08 9.7 °C 5.1 °C 1029.3 hPa SSW 12.9 km/h 16.7 km/h 73 % 0 mm
01:13 9.7 °C 5.1 °C 1029.3 hPa SSW 7.9 km/h 13 km/h 73 % 0 mm
01:18 9.7 °C 5.1 °C 1029.3 hPa SSW 7.9 km/h 11.1 km/h 73 % 0 mm
01:23 9.6 °C 5.2 °C 1029.3 hPa SSW 9.5 km/h 13 km/h 74 % 0 mm
01:28 9.6 °C 5.2 °C 1029.3 hPa SSW 4.8 km/h 5.6 km/h 74 % 0 mm
01:33 9.6 °C 5.2 °C 1029.3 hPa North 11.9 km/h 14.8 km/h 74 % 0 mm
01:38 9.6 °C 5.2 °C 1029.3 hPa SSW 8.4 km/h 13 km/h 74 % 0 mm
01:43 9.6 °C 5.2 °C 1029.3 hPa SSW 11.1 km/h 13 km/h 74 % 0 mm
01:48 9.6 °C 5 °C 1029.3 hPa SSW 14.6 km/h 18.5 km/h 73 % 0 mm
01:53 9.6 °C 5.2 °C 1029.3 hPa SSW 7.9 km/h 9.3 km/h 74 % 0 mm
01:58 9.7 °C 5.3 °C 1029.3 hPa SSW 9 km/h 13 km/h 74 % 0 mm
02:03 9.6 °C 5.2 °C 1029 hPa SSW 4.8 km/h 9.7 km/h 74 % 0 mm
02:08 9.6 °C 5.2 °C 1029 hPa SSW 7.1 km/h 13 km/h 74 % 0 mm
02:13 9.6 °C 5.2 °C 1029 hPa SSW 8.5 km/h 11.1 km/h 74 % 0 mm
02:18 9.6 °C 5.2 °C 1029 hPa SSW 5 km/h 5.6 km/h 74 % 0 mm
02:23 9.6 °C 5.2 °C 1029 hPa North 4.7 km/h 7.4 km/h 74 % 0 mm
02:28 9.6 °C 5.2 °C 1029 hPa SSW 11.6 km/h 16.7 km/h 74 % 0 mm
02:33 9.6 °C 5.2 °C 1029 hPa SSW 12.1 km/h 18.5 km/h 74 % 0 mm
02:38 9.7 °C 5.3 °C 1029 hPa SSW 9.2 km/h 13 km/h 74 % 0 mm
02:43 9.7 °C 5.3 °C 1029 hPa SSW 6.3 km/h 11.3 km/h 74 % 0 mm
02:48 9.7 °C 5.4 °C 1029 hPa SSW 8.4 km/h 13 km/h 75 % 0 mm
02:53 9.6 °C 5.6 °C 1029 hPa SSW 8.9 km/h 13 km/h 76 % 0 mm
02:58 9.6 °C 5.7 °C 1029 hPa SSW 8.9 km/h 13 km/h 77 % 0 mm
03:03 9.6 °C 5.9 °C 1029 hPa SSW 8.7 km/h 13 km/h 78 % 0 mm
03:08 9.5 °C 5.8 °C 1028.7 hPa SW 5.3 km/h 11.1 km/h 78 % 0 mm
03:13 9.4 °C 5.8 °C 1028.7 hPa SW 6.6 km/h 11.1 km/h 78 % 0 mm
03:18 9.4 °C 5.8 °C 1028.7 hPa North 8.7 km/h 16.1 km/h 78 % 0 mm
03:23 9.4 °C 5.8 °C 1028.7 hPa North 7.9 km/h 11.1 km/h 78 % 0 mm
03:28 9.4 °C 6 °C 1028.7 hPa SW 9.3 km/h 13 km/h 79 % 0 mm
03:33 9.4 °C 5.9 °C 1028.7 hPa North 8 km/h 16.7 km/h 79 % 0 mm
03:38 9.4 °C 5.9 °C 1028.3 hPa North 9.2 km/h 13 km/h 79 % 0 mm
03:43 9.4 °C 5.8 °C 1028.7 hPa SW 6.9 km/h 11.3 km/h 78 % 0 mm
03:48 9.5 °C 5.8 °C 1028.3 hPa North 6.8 km/h 9.7 km/h 78 % 0 mm
03:53 9.5 °C 5.7 °C 1028.3 hPa SW 9 km/h 13 km/h 77 % 0 mm
03:58 9.5 °C 5.7 °C 1028.3 hPa SW 7.4 km/h 13 km/h 77 % 0 mm
04:03 9.5 °C 5.7 °C 1028.3 hPa SW 6 km/h 8 km/h 77 % 0 mm
04:08 9.5 °C 5.7 °C 1028.3 hPa SW 4.5 km/h 5.6 km/h 77 % 0 mm
04:13 9.5 °C 5.7 °C 1028.3 hPa SW 9.3 km/h 14.5 km/h 77 % 0 mm
04:18 9.5 °C 5.7 °C 1028.3 hPa SW 10.5 km/h 18.5 km/h 77 % 0 mm
04:23 9.5 °C 5.7 °C 1028 hPa SW 10.6 km/h 13 km/h 77 % 0 mm
04:28 9.6 °C 5.6 °C 1028.3 hPa North 5.5 km/h 9.3 km/h 76 % 0 mm
04:33 9.6 °C 5.6 °C 1028.3 hPa SW 9.7 km/h 16.7 km/h 76 % 0 mm
04:38 9.6 °C 5.6 °C 1028.3 hPa SW 9.5 km/h 13 km/h 76 % 0 mm
04:43 9.7 °C 5.6 °C 1028.3 hPa SW 9.8 km/h 14.8 km/h 76 % 0 mm
04:48 9.7 °C 5.6 °C 1028.3 hPa North 9 km/h 11.1 km/h 76 % 0 mm
04:53 9.7 °C 5.6 °C 1028.3 hPa SSW 12.1 km/h 18.5 km/h 76 % 0 mm
04:58 9.7 °C 5.6 °C 1028.3 hPa SSW 11.4 km/h 14.8 km/h 76 % 0 mm
05:03 9.7 °C 5.7 °C 1028.3 hPa SW 9.7 km/h 14.8 km/h 76 % 0 mm
05:08 9.7 °C 5.6 °C 1028.3 hPa SW 9 km/h 14.8 km/h 76 % 0 mm
05:13 9.6 °C 5.9 °C 1028.3 hPa SSW 5.1 km/h 9.3 km/h 78 % 0 mm
05:18 9.5 °C 5.8 °C 1028.3 hPa SW 9.8 km/h 14.8 km/h 78 % 0 mm
05:23 9.5 °C 6.1 °C 1028.3 hPa SW 8.2 km/h 13 km/h 79 % 0 mm
05:28 9.4 °C 6 °C 1028.3 hPa North 7.4 km/h 18.5 km/h 79 % 0 mm
05:33 9.4 °C 6 °C 1028.3 hPa SW 9.7 km/h 11.1 km/h 79 % 0 mm
05:38 9.5 °C 5.8 °C 1028.3 hPa North 6.9 km/h 9.3 km/h 78 % 0 mm
05:43 9.5 °C 5.8 °C 1028 hPa SW 4.5 km/h 5.6 km/h 78 % 0 mm
05:48 9.5 °C 5.8 °C 1028 hPa SW 4.5 km/h 13 km/h 78 % 0 mm
05:53 9.5 °C 5.8 °C 1028 hPa SW 5.8 km/h 6.4 km/h 78 % 0 mm
05:58 9.5 °C 5.8 °C 1028 hPa SW 6.3 km/h 9.7 km/h 78 % 0 mm
06:03 9.5 °C 5.8 °C 1028 hPa SW 3.1 km/h 5.6 km/h 78 % 0 mm
06:08 9.5 °C 5.8 °C 1028 hPa SW 4.5 km/h 5.6 km/h 78 % 0 mm
06:13 9.5 °C 5.8 °C 1028 hPa SW 0.8 km/h 1.6 km/h 78 % 0 mm
06:18 9.5 °C 5.8 °C 1028 hPa North 0.3 km/h 5.6 km/h 78 % 0 mm
06:23 9.5 °C 5.8 °C 1028 hPa SW 2.6 km/h 5.6 km/h 78 % 0 mm
06:28 9.4 °C 5.8 °C 1028 hPa SW 1 km/h 1.9 km/h 78 % 0 mm
06:33 9.4 °C 5.8 °C 1028 hPa SW 7.2 km/h 8 km/h 78 % 0 mm
06:38 9.6 °C 5.9 °C 1028 hPa SW 6.4 km/h 8 km/h 78 % 0 mm
06:43 9.6 °C 5.8 °C 1028 hPa North 4.8 km/h 7.4 km/h 77 % 0 mm
06:48 9.6 °C 5.9 °C 1028 hPa SW 7.9 km/h 9.3 km/h 78 % 0 mm
06:53 9.7 °C 6 °C 1028 hPa SW 9.2 km/h 13 km/h 78 % 0 mm
06:58 9.7 °C 5.8 °C 1028 hPa SW 4.5 km/h 6.4 km/h 77 % 0 mm
07:03 9.7 °C 5.8 °C 1028 hPa SW 2.7 km/h 5.6 km/h 77 % 0 mm
07:08 9.7 °C 5.8 °C 1028.3 hPa SW 2.4 km/h 7.4 km/h 77 % 0 mm
07:13 9.7 °C 5.8 °C 1028.3 hPa North 6.3 km/h 8 km/h 77 % 0 mm
07:18 9.7 °C 5.8 °C 1028.3 hPa SW 7.6 km/h 8 km/h 77 % 0 mm
07:23 9.7 °C 5.9 °C 1028.3 hPa SW 6.8 km/h 13 km/h 77 % 0 mm
07:28 9.7 °C 5.9 °C 1028.3 hPa SW 6.6 km/h 11.1 km/h 77 % 0 mm
07:33 9.8 °C 6.3 °C 1028.3 hPa SW 14.8 km/h 18.5 km/h 79 % 0 mm
07:38 9.6 °C 6.3 °C 1028.3 hPa SW 14.5 km/h 16.7 km/h 80 % 0 mm
07:43 9.4 °C 6.3 °C 1028.3 hPa SW 5.3 km/h 13 km/h 81 % 0 mm
07:48 9.3 °C 6.4 °C 1028.3 hPa SW 7.4 km/h 11.3 km/h 82 % 0 mm
07:53 9.2 °C 6.4 °C 1028.3 hPa SW 7.9 km/h 9.3 km/h 83 % 0 mm
07:58 9.2 °C 6.4 °C 1028.3 hPa SW 5.1 km/h 9.7 km/h 83 % 0 mm
08:03 9.2 °C 6.6 °C 1028.3 hPa SW 5.1 km/h 9.7 km/h 84 % 0 mm
08:08 9.2 °C 6.7 °C 1028.3 hPa SW 8.7 km/h 13 km/h 84 % 0 mm
08:13 9.3 °C 6.7 °C 1028.3 hPa SW 4 km/h 5.6 km/h 84 % 0 mm
08:18 9.3 °C 6.7 °C 1028.3 hPa SW 2.3 km/h 5.6 km/h 84 % 0 mm
08:23 9.3 °C 6.8 °C 1028.3 hPa North 3.1 km/h 3.2 km/h 84 % 0 mm
08:28 9.3 °C 6.8 °C 1028.3 hPa SW 2.6 km/h 4.8 km/h 84 % 0 mm
08:33 9.5 °C 7.1 °C 1028.3 hPa SW 4 km/h 5.6 km/h 85 % 0 mm
08:38 9.7 °C 7.1 °C 1028.3 hPa SW 1 km/h 5.6 km/h 84 % 0 mm
08:44 9.8 °C 7 °C 1028.3 hPa SW 9.3 km/h 9.3 km/h 83 % 0 mm
08:49 9.8 °C 7.2 °C 1028.3 hPa SW 1.9 km/h 5.6 km/h 84 % 0 mm
08:54 9.7 °C 7.2 °C 1028.3 hPa SW 5.8 km/h 9.3 km/h 84 % 0 mm
08:59 9.8 °C 7.2 °C 1028.3 hPa SW 9.8 km/h 11.3 km/h 84 % 0 mm
09:04 9.8 °C 7.2 °C 1028.3 hPa SW 6.1 km/h 11.1 km/h 84 % 0 mm
09:09 9.8 °C 7.2 °C 1028.3 hPa SW 10.9 km/h 18.5 km/h 84 % 0 mm
09:14 9.9 °C 7.3 °C 1028.3 hPa SW 9.7 km/h 9.7 km/h 84 % 0 mm
09:19 9.9 °C 7.4 °C 1028 hPa SW 12.7 km/h 12.7 km/h 84 % 0 mm
09:24 10 °C 7.2 °C 1028 hPa WSW 12.2 km/h 18.5 km/h 83 % 0 mm
09:29 10.2 °C 7.4 °C 1028 hPa WSW 6.3 km/h 9.3 km/h 83 % 0 mm
09:34 10.5 °C 7.6 °C 1028 hPa WSW 7.2 km/h 12.9 km/h 82 % 0 mm
09:39 10.5 °C 7.2 °C 1028 hPa WSW 9.7 km/h 16.7 km/h 80 % 0 mm
09:44 10.6 °C 7.2 °C 1028 hPa WSW 12.1 km/h 16.7 km/h 80 % 0 mm
09:49 10.7 °C 7.3 °C 1028 hPa WSW 10.1 km/h 16.7 km/h 80 % 0 mm
09:54 10.6 °C 7.1 °C 1028 hPa WSW 18.7 km/h 22.2 km/h 79 % 0 mm
09:59 10.7 °C 7.2 °C 1028 hPa WSW 16.7 km/h 20.4 km/h 79 % 0 mm
10:04 10.8 °C 7.1 °C 1028 hPa North 13 km/h 18.5 km/h 78 % 0 mm
10:09 11 °C 7.3 °C 1028 hPa North 14.6 km/h 25.9 km/h 78 % 0 mm
10:14 10.9 °C 7.3 °C 1028 hPa WSW 12.2 km/h 18.5 km/h 78 % 0 mm
10:19 10.8 °C 7.3 °C 1028 hPa SW 9.7 km/h 18.5 km/h 79 % 0 mm
10:24 10.9 °C 7.4 °C 1028 hPa WSW 6.3 km/h 11.1 km/h 79 % 0 mm
10:29 11.1 °C 7.6 °C 1028 hPa WSW 6.6 km/h 9.3 km/h 79 % 0 mm
10:34 11.2 °C 7.3 °C 1028 hPa WSW 14.8 km/h 18.5 km/h 77 % 0 mm
10:39 11.1 °C 7.2 °C 1028 hPa West 11.7 km/h 14.5 km/h 77 % 0 mm
10:44 11.3 °C 7.4 °C 1028 hPa WSW 4.3 km/h 13 km/h 77 % 0 mm
10:49 11.4 °C 7.6 °C 1028 hPa WSW 14.2 km/h 14.2 km/h 77 % 0 mm
10:54 11.4 °C 7.2 °C 1028 hPa WSW 13 km/h 16.7 km/h 75 % 0 mm
10:59 11.5 °C 7.4 °C 1028 hPa West 9.7 km/h 16.7 km/h 76 % 0 mm
11:04 11.4 °C 7.2 °C 1028 hPa North 16.4 km/h 24.1 km/h 75 % 0 mm
11:09 11.4 °C 7.3 °C 1028 hPa West 17.2 km/h 20.9 km/h 76 % 0 mm
11:14 11.3 °C 7.3 °C 1027.7 hPa North 9.8 km/h 13 km/h 76 % 0 mm
11:19 11.5 °C 7.4 °C 1027.7 hPa SW 13 km/h 18.5 km/h 76 % 0 mm
11:29 12 °C 7.7 °C 1027.7 hPa SW 6.9 km/h 16.7 km/h 75 % 0 mm
11:34 12.1 °C 7.6 °C 1027.7 hPa WSW 7.4 km/h 9.3 km/h 74 % 0 mm
11:39 12 °C 7.5 °C 1027.3 hPa SW 8 km/h 11.3 km/h 74 % 0 mm
11:44 11.9 °C 7.6 °C 1027.3 hPa SW 10.1 km/h 12.9 km/h 75 % 0 mm
11:49 11.9 °C 7.6 °C 1027.3 hPa WSW 9.8 km/h 13 km/h 75 % 0 mm
11:54 11.8 °C 7.7 °C 1027 hPa WSW 9.2 km/h 13 km/h 76 % 0 mm
11:59 11.8 °C 7.7 °C 1027 hPa North 10.8 km/h 16.7 km/h 76 % 0 mm
12:04 12 °C 7.9 °C 1027 hPa SW 10.8 km/h 13 km/h 76 % 0 mm
12:09 12.3 °C 8.2 °C 1026.6 hPa SW 5.5 km/h 7.4 km/h 76 % 0 mm
12:14 12.6 °C 8.1 °C 1026.6 hPa West 13.4 km/h 18.5 km/h 74 % 0 mm
12:19 12.5 °C 8 °C 1026.6 hPa West 12.9 km/h 16.7 km/h 74 % 0 mm
12:24 12.4 °C 7.9 °C 1026.6 hPa North 11.7 km/h 16.7 km/h 74 % 0 mm
12:29 12.4 °C 7.9 °C 1026.6 hPa West 15.8 km/h 18.5 km/h 74 % 0 mm
18:22 11.5 °C 8.7 °C 1024.6 hPa West 0.8 km/h 1.9 km/h 83 % 0 mm
18:27 11.5 °C 8.7 °C 1024.6 hPa West 1.8 km/h 3.7 km/h 83 % 0 mm
18:32 11.5 °C 8.7 °C 1024.9 hPa West 4.8 km/h 7.4 km/h 83 % 0 mm
18:37 11.4 °C 8.7 °C 1024.9 hPa West 3.9 km/h 5.6 km/h 83 % 0 mm
18:42 11.4 °C 8.7 °C 1024.9 hPa North 1 km/h 3.7 km/h 83 % 0 mm
18:47 11.4 °C 8.7 °C 1024.9 hPa North 1.4 km/h 3.7 km/h 83 % 0 mm
18:52 11.4 °C 8.7 °C 1024.9 hPa West 1.6 km/h 3.7 km/h 83 % 0 mm
18:57 11.4 °C 8.7 °C 1024.9 hPa West 2.1 km/h 5.6 km/h 83 % 0 mm
19:02 11.4 °C 8.7 °C 1024.9 hPa West 7.7 km/h 9.3 km/h 83 % 0 mm
19:07 11.4 °C 8.8 °C 1024.9 hPa North 3.5 km/h 5.6 km/h 84 % 0 mm
19:12 11.4 °C 8.8 °C 1024.9 hPa West 5.8 km/h 7.4 km/h 84 % 0 mm
19:17 11.4 °C 8.8 °C 1024.9 hPa West 3.7 km/h 5.6 km/h 84 % 0 mm
19:22 11.4 °C 8.8 °C 1024.9 hPa West 0.5 km/h 1.9 km/h 84 % 0 mm
19:27 11.5 °C 8.9 °C 1024.9 hPa West 3.7 km/h 5.6 km/h 84 % 0 mm
19:32 11.5 °C 8.9 °C 1024.9 hPa West 3.4 km/h 6.4 km/h 84 % 0 mm
19:37 11.5 °C 8.7 °C 1024.9 hPa West 5.6 km/h 6.4 km/h 83 % 0 mm
19:42 11.5 °C 8.7 °C 1024.9 hPa West 2.6 km/h 5.6 km/h 83 % 0 mm
19:47 11.5 °C 8.7 °C 1024.9 hPa West 5.3 km/h 7.4 km/h 83 % 0 mm
19:52 11.6 °C 8.8 °C 1024.9 hPa North 5.8 km/h 7.4 km/h 83 % 0 mm
19:57 11.6 °C 8.8 °C 1024.9 hPa West 2.3 km/h 5.6 km/h 83 % 0 mm
20:02 11.6 °C 8.8 °C 1024.9 hPa North 6.1 km/h 6.4 km/h 83 % 0 mm
20:07 11.6 °C 8.9 °C 1024.9 hPa West 4.3 km/h 5.6 km/h 84 % 0 mm
20:12 11.6 °C 9 °C 1024.9 hPa West 4.3 km/h 5.6 km/h 84 % 0 mm
20:17 11.6 °C 8.9 °C 1024.9 hPa West 3.4 km/h 5.6 km/h 84 % 0 mm
20:22 11.6 °C 8.9 °C 1024.6 hPa West 3.1 km/h 5.6 km/h 84 % 0 mm
20:27 11.6 °C 8.9 °C 1024.6 hPa Calm     84 % 0 mm
20:32 11.5 °C 8.9 °C 1024.6 hPa North 5 km/h 6.4 km/h 84 % 0 mm
20:37 11.6 °C 8.9 °C 1024.6 hPa Calm     84 % 0 mm
20:42 11.6 °C 8.9 °C 1024.6 hPa West 1.1 km/h 3.7 km/h 84 % 0 mm
20:47 11.6 °C 8.9 °C 1024.6 hPa Calm     84 % 0 mm
20:52 11.6 °C 8.9 °C 1024.6 hPa North 1.4 km/h 3.7 km/h 84 % 0 mm
20:57 11.6 °C 8.9 °C 1024.6 hPa North 3.4 km/h 5.6 km/h 84 % 0 mm
21:02 11.6 °C 8.9 °C 1024.6 hPa West 1.3 km/h 3.7 km/h 84 % 0 mm
21:07 11.6 °C 9 °C 1024.6 hPa West 3.9 km/h 5.6 km/h 84 % 0 mm
21:12 11.6 °C 8.9 °C 1024.6 hPa West 1.3 km/h 3.7 km/h 84 % 0 mm
21:17 11.6 °C 8.9 °C 1024.6 hPa West 1.1 km/h 5.6 km/h 84 % 0 mm
21:22 11.6 °C 8.9 °C 1024.6 hPa West 1 km/h 3.2 km/h 84 % 0 mm
21:27 11.6 °C 8.9 °C 1024.3 hPa North 3.7 km/h 5.6 km/h 84 % 0 mm
21:32 11.6 °C 8.9 °C 1024.6 hPa West 1.8 km/h 3.7 km/h 84 % 0 mm
21:37 11.6 °C 8.9 °C 1024.3 hPa West 0.2 km/h 3.7 km/h 84 % 0 mm
21:42 11.5 °C 9.1 °C 1024.3 hPa West 4.5 km/h 5.6 km/h 85 % 0 mm
21:47 11.5 °C 9.1 °C 1024.6 hPa West 3.5 km/h 5.6 km/h 85 % 0 mm
21:52 11.5 °C 9.1 °C 1024.3 hPa North 0.5 km/h 3.7 km/h 85 % 0 mm
21:57 11.5 °C 9.1 °C 1024.3 hPa West 3.4 km/h 5.6 km/h 85 % 0 mm
22:02 11.5 °C 9.1 °C 1024.6 hPa Calm   1.9 km/h 85 % 0 mm
22:07 11.5 °C 9.1 °C 1024.6 hPa Calm     85 % 0 mm
22:12 11.5 °C 9.1 °C 1024.3 hPa West 0.5 km/h 3.7 km/h 85 % 0 mm
22:17 11.5 °C 9.1 °C 1024.3 hPa North 3.4 km/h 5.6 km/h 85 % 0 mm
22:22 11.5 °C 9.1 °C 1024.3 hPa West 2.6 km/h 5.6 km/h 85 % 0 mm
22:27 11.5 °C 9.1 °C 1024.3 hPa North 1.6 km/h 3.7 km/h 85 % 0 mm
22:32 11.5 °C 9.1 °C 1024.3 hPa West 1.3 km/h 3.2 km/h 85 % 0 mm
22:37 11.4 °C 8.9 °C 1024.3 hPa West 3.7 km/h 5.6 km/h 85 % 0 mm
22:42 11.3 °C 8.9 °C 1024.3 hPa West 3.2 km/h 5.6 km/h 85 % 0 mm
22:47 11.3 °C 9 °C 1024.3 hPa West 3.2 km/h 5.6 km/h 86 % 0 mm
22:52 11.3 °C 9 °C 1024.3 hPa West 2.6 km/h 3.7 km/h 86 % 0 mm
22:57 11.2 °C 8.9 °C 1023.9 hPa West 2.6 km/h 3.7 km/h 86 % 0 mm
23:02 11.2 °C 8.9 °C 1023.9 hPa West 1.3 km/h 5.6 km/h 86 % 0 mm
23:07 11.2 °C 8.9 °C 1023.9 hPa West 0.3 km/h 3.2 km/h 86 % 0 mm
23:12 11.2 °C 8.9 °C 1023.9 hPa West 3.9 km/h 5.6 km/h 86 % 0 mm
23:17 11.2 °C 9.1 °C 1023.9 hPa West 3.9 km/h 5.6 km/h 87 % 0 mm
23:22 11.2 °C 9.1 °C 1023.9 hPa West 4.7 km/h 5.6 km/h 87 % 0 mm
23:27 11.2 °C 9.1 °C 1023.9 hPa West 4.8 km/h 5.6 km/h 87 % 0 mm
23:32 11.2 °C 9.1 °C 1023.9 hPa West 5 km/h 5.6 km/h 87 % 0 mm
23:37 11.2 °C 9.1 °C 1023.9 hPa West 1.9 km/h 5.6 km/h 87 % 0 mm
23:42 11.2 °C 9.1 °C 1023.9 hPa West 4.2 km/h 5.6 km/h 87 % 0 mm
23:47 11.2 °C 9.1 °C 1023.9 hPa North 3.4 km/h 5.6 km/h 87 % 0 mm
23:52 11.2 °C 9.1 °C 1023.9 hPa West 1.3 km/h 5.6 km/h 87 % 0 mm
23:57 11.3 °C 9.4 °C 1023.9 hPa Calm     88 % 0 mm
Ararat Weather
Compliments of Weather Underground - 2 mb
Click here to send mail.


ABOUT

Live weather data from Ararat, Victoria, Australia, 3377
Data uploaded from Cumulus every 5 minutes to Weather Underground.
This site then downloads the raw data for formatting and display.
Metric and imperial data can be displayed. Graphs and historical data available.
Includes Sun and Moon times and rain image live from BOM.

Check out Ararat Weather on Facebook, Twitter and Google +

Help support ongoing costs by checking out the ads





Follow @AraratWeather